createdAt,value
2019-02-08T00:00:05.768Z,1005.51
2019-02-08T00:00:44.743Z,1005.46
2019-02-08T00:01:44.715Z,1005.49
2019-02-08T00:02:44.689Z,1005.52
2019-02-08T00:03:44.660Z,1005.53
2019-02-08T00:04:44.639Z,1005.48
2019-02-08T00:06:05.607Z,1005.54
2019-02-08T00:06:44.594Z,1005.53
2019-02-08T00:07:44.561Z,1005.50
2019-02-08T00:08:44.530Z,1005.53
2019-02-08T00:09:44.504Z,1005.44
2019-02-08T00:10:44.478Z,1005.48
2019-02-08T00:12:05.453Z,1005.56
2019-02-08T00:12:44.425Z,1005.50
2019-02-08T00:13:44.398Z,1005.54
2019-02-08T00:14:44.372Z,1005.53
2019-02-08T00:15:44.351Z,1005.51
2019-02-08T00:16:44.323Z,1005.51
2019-02-08T00:18:05.294Z,1005.44
2019-02-08T00:18:44.283Z,1005.51
2019-02-08T00:19:44.243Z,1005.48
2019-02-08T00:20:44.215Z,1005.51
2019-02-08T00:21:44.190Z,1005.55
2019-02-08T00:22:44.166Z,1005.56
2019-02-08T00:24:05.180Z,1005.56
2019-02-08T00:24:44.119Z,1005.48
2019-02-08T00:25:44.086Z,1005.53
2019-02-08T00:26:44.065Z,1005.51
2019-02-08T00:27:44.038Z,1005.54
2019-02-08T00:28:44.007Z,1005.45
2019-02-08T00:30:04.983Z,1005.54
2019-02-08T00:30:43.970Z,1005.51
2019-02-08T00:31:43.932Z,1005.49
2019-02-08T00:32:43.904Z,1005.48
2019-02-08T00:33:43.879Z,1005.51
2019-02-08T00:34:43.851Z,1005.49
2019-02-08T00:36:04.824Z,1005.50
2019-02-08T00:36:43.800Z,1005.51
2019-02-08T00:37:43.774Z,1005.46
2019-02-08T00:38:43.748Z,1005.40
2019-02-08T00:39:43.722Z,1005.46
2019-02-08T00:40:43.696Z,1005.47
2019-02-08T00:42:04.668Z,1005.51
2019-02-08T00:42:43.645Z,1005.52
2019-02-08T00:43:43.619Z,1005.51
2019-02-08T00:44:43.591Z,1005.55
2019-02-08T00:45:43.565Z,1005.52
2019-02-08T00:46:43.538Z,1005.49
2019-02-08T00:48:04.513Z,1005.48
2019-02-08T00:48:43.486Z,1005.54
2019-02-08T00:49:43.461Z,1005.51
2019-02-08T00:50:43.435Z,1005.49
2019-02-08T00:51:43.409Z,1005.52
2019-02-08T00:52:43.390Z,1005.52
2019-02-08T00:54:04.467Z,1005.46
2019-02-08T00:54:43.329Z,1005.45
2019-02-08T00:55:43.307Z,1005.47
2019-02-08T00:56:43.277Z,1005.46
2019-02-08T00:57:43.252Z,1005.50
2019-02-08T00:58:43.225Z,1005.48
2019-02-08T01:00:04.198Z,1005.48
2019-02-08T01:00:43.172Z,1005.52
2019-02-08T01:01:43.146Z,1005.45
2019-02-08T01:02:43.123Z,1005.46
2019-02-08T01:03:43.095Z,1005.50
2019-02-08T01:04:43.067Z,1005.43
2019-02-08T01:06:04.039Z,1005.48
2019-02-08T01:06:43.016Z,1005.49
2019-02-08T01:07:42.989Z,1005.48
2019-02-08T01:08:42.961Z,1005.45
2019-02-08T01:09:42.939Z,1005.41
2019-02-08T01:10:42.910Z,1005.47
2019-02-08T01:12:03.883Z,1005.45
2019-02-08T01:12:42.857Z,1005.43
2019-02-08T01:13:42.831Z,1005.46
2019-02-08T01:14:42.804Z,1005.38
2019-02-08T01:15:42.781Z,1005.42
2019-02-08T01:16:42.752Z,1005.43
2019-02-08T01:18:03.726Z,1005.52
2019-02-08T01:18:42.699Z,1005.51
2019-02-08T01:19:42.673Z,1005.51
2019-02-08T01:20:42.654Z,1005.54
2019-02-08T01:21:42.620Z,1005.59
2019-02-08T01:22:42.596Z,1005.58
2019-02-08T01:24:03.636Z,1005.53
2019-02-08T01:24:42.542Z,1005.56
2019-02-08T01:25:42.515Z,1005.59
2019-02-08T01:26:42.488Z,1005.63
2019-02-08T01:27:42.463Z,1005.59
2019-02-08T01:28:42.444Z,1005.63
2019-02-08T01:30:03.406Z,1005.59
2019-02-08T01:30:42.381Z,1005.63
2019-02-08T01:31:42.369Z,1005.63
2019-02-08T01:32:42.328Z,1005.67
2019-02-08T01:33:42.303Z,1005.65
2019-02-08T01:34:42.277Z,1005.69
2019-02-08T01:36:03.250Z,1005.65
2019-02-08T01:36:42.223Z,1005.61
2019-02-08T01:37:42.198Z,1005.60
2019-02-08T01:38:42.170Z,1005.63
2019-02-08T01:39:42.144Z,1005.57
2019-02-08T01:40:42.117Z,1005.60
2019-02-08T01:42:03.090Z,1005.59
2019-02-08T01:42:42.065Z,1005.61
2019-02-08T01:43:42.040Z,1005.58
2019-02-08T01:44:42.012Z,1005.52
2019-02-08T01:45:41.985Z,1005.54
2019-02-08T01:46:41.961Z,1005.57
2019-02-08T01:48:02.932Z,1005.60
2019-02-08T01:48:41.910Z,1005.62
2019-02-08T01:49:41.882Z,1005.66
2019-02-08T01:50:41.858Z,1005.64
2019-02-08T01:51:41.829Z,1005.64
2019-02-08T01:52:41.804Z,1005.59
2019-02-08T01:54:02.812Z,1005.63
2019-02-08T01:54:41.749Z,1005.61
2019-02-08T01:55:41.724Z,1005.68
2019-02-08T01:56:41.696Z,1005.69
2019-02-08T01:57:41.670Z,1005.65
2019-02-08T01:58:41.649Z,1005.65
2019-02-08T02:00:02.622Z,1005.63
2019-02-08T02:00:41.590Z,1005.64
2019-02-08T02:01:41.566Z,1005.60
2019-02-08T02:02:41.543Z,1005.57
2019-02-08T02:03:41.514Z,1005.62
2019-02-08T02:04:41.488Z,1005.59
2019-02-08T02:06:02.460Z,1005.65
2019-02-08T02:06:41.435Z,1005.63
2019-02-08T02:07:41.412Z,1005.63
2019-02-08T02:08:41.383Z,1005.66
2019-02-08T02:09:41.358Z,1005.78
2019-02-08T02:10:41.330Z,1005.68
2019-02-08T02:12:02.304Z,1005.66
2019-02-08T02:12:41.277Z,1005.70
2019-02-08T02:13:41.254Z,1005.71
2019-02-08T02:14:41.229Z,1005.66
2019-02-08T02:15:41.199Z,1005.69
2019-02-08T02:16:41.174Z,1005.64
2019-02-08T02:18:02.147Z,1005.68
2019-02-08T02:18:41.121Z,1005.63
2019-02-08T02:19:41.098Z,1005.64
2019-02-08T02:20:41.071Z,1005.66
2019-02-08T02:21:41.044Z,1005.61
2019-02-08T02:22:41.018Z,1005.62
2019-02-08T02:24:02.090Z,1005.70
2019-02-08T02:24:40.965Z,1005.59
2019-02-08T02:25:40.938Z,1005.65
2019-02-08T02:26:40.912Z,1005.68
2019-02-08T02:27:40.886Z,1005.67
2019-02-08T02:28:40.861Z,1005.67
2019-02-08T02:30:01.841Z,1005.69
2019-02-08T02:30:40.807Z,1005.73
2019-02-08T02:31:40.787Z,1005.73
2019-02-08T02:32:40.753Z,1005.75
2019-02-08T02:33:40.728Z,1005.76
2019-02-08T02:34:40.706Z,1005.74
2019-02-08T02:36:01.678Z,1005.72
2019-02-08T02:36:40.649Z,1005.73
2019-02-08T02:37:40.624Z,1005.80
2019-02-08T02:38:40.598Z,1005.83
2019-02-08T02:39:40.572Z,1005.77
2019-02-08T02:40:40.551Z,1005.72
2019-02-08T02:42:01.522Z,1005.78
2019-02-08T02:42:40.496Z,1005.83
2019-02-08T02:43:40.467Z,1005.82
2019-02-08T02:44:40.441Z,1005.80
2019-02-08T02:45:40.414Z,1005.85
2019-02-08T02:46:40.390Z,1005.85
2019-02-08T02:48:01.362Z,1005.81
2019-02-08T02:48:40.335Z,1005.80
2019-02-08T02:49:40.311Z,1005.82
2019-02-08T02:50:40.283Z,1005.78
2019-02-08T02:51:40.261Z,1005.85
2019-02-08T02:52:40.230Z,1005.77
2019-02-08T02:54:04.824Z,1005.87
2019-02-08T02:54:40.176Z,1005.78
2019-02-08T02:55:40.159Z,1005.79
2019-02-08T02:56:40.123Z,1005.77
2019-02-08T02:57:40.107Z,1005.71
2019-02-08T02:58:40.074Z,1005.75
2019-02-08T03:00:01.049Z,1005.77
2019-02-08T03:00:40.021Z,1005.83
2019-02-08T03:01:39.992Z,1005.74
2019-02-08T03:02:39.966Z,1005.75
2019-02-08T03:03:39.940Z,1005.79
2019-02-08T03:04:39.913Z,1005.76
2019-02-08T03:06:00.886Z,1005.77
2019-02-08T03:06:39.862Z,1005.73
2019-02-08T03:07:39.836Z,1005.78
2019-02-08T03:08:39.901Z,1005.77
2019-02-08T03:09:39.780Z,1005.77
2019-02-08T03:10:39.755Z,1005.82
2019-02-08T03:12:00.732Z,1005.81
2019-02-08T03:12:39.703Z,1005.79
2019-02-08T03:13:39.676Z,1005.82
2019-02-08T03:14:39.650Z,1005.77
2019-02-08T03:15:39.623Z,1005.86
2019-02-08T03:16:39.597Z,1005.86
2019-02-08T03:18:00.570Z,1005.79
2019-02-08T03:18:39.550Z,1005.78
2019-02-08T03:19:39.542Z,1005.76
2019-02-08T03:20:39.494Z,1005.75
2019-02-08T03:21:39.465Z,1005.77
2019-02-08T03:22:39.441Z,1005.68
2019-02-08T03:24:00.442Z,1005.70
2019-02-08T03:24:39.386Z,1005.68
2019-02-08T03:25:39.367Z,1005.68
2019-02-08T03:26:39.333Z,1005.65
2019-02-08T03:27:39.308Z,1005.64
2019-02-08T03:28:39.283Z,1005.70
2019-02-08T03:30:00.288Z,1005.66
2019-02-08T03:30:39.233Z,1005.69
2019-02-08T03:31:39.206Z,1005.64
2019-02-08T03:32:39.177Z,1005.65
2019-02-08T03:33:39.175Z,1005.60
2019-02-08T03:34:39.145Z,1005.60
2019-02-08T03:36:00.101Z,1005.62
2019-02-08T03:36:39.072Z,1005.56
2019-02-08T03:37:39.046Z,1005.52
2019-02-08T03:38:39.021Z,1005.55
2019-02-08T03:39:38.993Z,1005.53
2019-02-08T03:40:38.967Z,1005.47
2019-02-08T03:41:59.949Z,1005.49
2019-02-08T03:42:38.917Z,1005.52
2019-02-08T03:43:38.890Z,1005.54
2019-02-08T03:44:38.863Z,1005.48
2019-02-08T03:45:38.836Z,1005.55
2019-02-08T03:46:38.813Z,1005.57
2019-02-08T03:47:59.784Z,1005.60
2019-02-08T03:48:38.762Z,1005.57
2019-02-08T03:49:38.759Z,1005.55
2019-02-08T03:50:38.710Z,1005.57
2019-02-08T03:51:38.685Z,1005.50
2019-02-08T03:52:38.664Z,1005.49
2019-02-08T03:53:59.722Z,1005.52
2019-02-08T03:54:38.609Z,1005.52
2019-02-08T03:55:38.579Z,1005.50
2019-02-08T03:56:38.559Z,1005.48
2019-02-08T03:57:38.525Z,1005.50
2019-02-08T03:58:38.503Z,1005.47
2019-02-08T03:59:59.476Z,1005.48
2019-02-08T04:00:38.448Z,1005.53
2019-02-08T04:01:38.421Z,1005.48
2019-02-08T04:02:38.395Z,1005.49
2019-02-08T04:03:38.369Z,1005.43
2019-02-08T04:04:38.344Z,1005.48
2019-02-08T04:05:59.317Z,1005.48
2019-02-08T04:06:38.291Z,1005.48
2019-02-08T04:07:38.266Z,1005.42
2019-02-08T04:08:38.240Z,1005.44
2019-02-08T04:09:38.216Z,1005.43
2019-02-08T04:10:38.189Z,1005.42
2019-02-08T04:11:59.165Z,1005.43
2019-02-08T04:12:38.134Z,1005.32
2019-02-08T04:13:38.111Z,1005.35
2019-02-08T04:14:38.087Z,1005.40
2019-02-08T04:15:38.058Z,1005.39
2019-02-08T04:16:38.035Z,1005.38
2019-02-08T04:17:59.007Z,1005.39
2019-02-08T04:18:37.979Z,1005.37
2019-02-08T04:19:37.967Z,1005.43
2019-02-08T04:20:37.926Z,1005.37
2019-02-08T04:21:37.899Z,1005.42
2019-02-08T04:22:37.874Z,1005.44
2019-02-08T04:23:58.899Z,1005.42
2019-02-08T04:24:37.820Z,1005.45
2019-02-08T04:25:37.795Z,1005.46
2019-02-08T04:26:37.770Z,1005.47
2019-02-08T04:27:37.744Z,1005.45
2019-02-08T04:28:37.781Z,1005.54
2019-02-08T04:29:58.694Z,1005.50
2019-02-08T04:30:37.667Z,1005.52
2019-02-08T04:31:37.639Z,1005.52
2019-02-08T04:32:37.611Z,1005.44
2019-02-08T04:33:37.587Z,1005.45
2019-02-08T04:34:37.559Z,1005.43
2019-02-08T04:35:58.537Z,1005.41
2019-02-08T04:36:37.508Z,1005.44
2019-02-08T04:37:37.479Z,1005.47
2019-02-08T04:38:37.457Z,1005.45
2019-02-08T04:39:37.429Z,1005.42
2019-02-08T04:40:37.400Z,1005.45
2019-02-08T04:41:58.374Z,1005.48
2019-02-08T04:42:37.349Z,1005.44
2019-02-08T04:43:37.322Z,1005.40
2019-02-08T04:44:37.296Z,1005.35
2019-02-08T04:45:37.271Z,1005.36
2019-02-08T04:46:37.255Z,1005.31
2019-02-08T04:47:58.216Z,1005.37
2019-02-08T04:48:37.203Z,1005.29
2019-02-08T04:49:37.162Z,1005.25
2019-02-08T04:50:37.140Z,1005.29
2019-02-08T04:51:37.113Z,1005.29
2019-02-08T04:52:37.084Z,1005.23
2019-02-08T04:53:58.058Z,1005.25
2019-02-08T04:54:38.367Z,1005.26
2019-02-08T04:55:37.013Z,1005.29
2019-02-08T04:56:36.988Z,1005.35
2019-02-08T04:57:36.955Z,1005.35
2019-02-08T04:58:36.929Z,1005.34
2019-02-08T04:59:57.900Z,1005.30
2019-02-08T05:00:36.916Z,1005.31
2019-02-08T05:01:36.852Z,1005.25
2019-02-08T05:02:36.836Z,1005.32
2019-02-08T05:03:36.806Z,1005.31
2019-02-08T05:04:36.771Z,1005.25
2019-02-08T05:05:57.744Z,1005.28
2019-02-08T05:06:36.717Z,1005.27
2019-02-08T05:07:36.692Z,1005.26
2019-02-08T05:08:36.664Z,1005.23
2019-02-08T05:09:36.637Z,1005.21
2019-02-08T05:10:36.717Z,1005.18
2019-02-08T05:11:57.589Z,1005.18
2019-02-08T05:12:36.563Z,1005.19
2019-02-08T05:13:36.542Z,1005.15
2019-02-08T05:14:36.507Z,1005.18
2019-02-08T05:15:36.483Z,1005.18
2019-02-08T05:16:36.455Z,1005.16
2019-02-08T05:17:57.448Z,1005.17
2019-02-08T05:18:36.403Z,1005.15
2019-02-08T05:19:36.374Z,1005.09
2019-02-08T05:20:36.351Z,1005.13
2019-02-08T05:21:36.327Z,1005.13
2019-02-08T05:22:36.299Z,1005.12
2019-02-08T05:23:57.274Z,1005.11
2019-02-08T05:24:36.242Z,1005.08
2019-02-08T05:25:36.217Z,1005.08
2019-02-08T05:26:36.194Z,1005.04
2019-02-08T05:27:36.167Z,1005.03
2019-02-08T05:28:36.142Z,1005.04
2019-02-08T05:29:57.125Z,1005.01
2019-02-08T05:30:36.089Z,1005.02
2019-02-08T05:31:36.059Z,1005.03
2019-02-08T05:32:36.032Z,1005.03
2019-02-08T05:33:36.006Z,1005.12
2019-02-08T05:34:35.982Z,1005.13
2019-02-08T05:35:56.957Z,1005.09
2019-02-08T05:36:35.928Z,1005.07
2019-02-08T05:37:35.903Z,1005.10
2019-02-08T05:38:35.877Z,1005.12
2019-02-08T05:39:37.449Z,1005.09
2019-02-08T05:40:35.828Z,1005.08
2019-02-08T05:41:56.795Z,1005.10
2019-02-08T05:42:35.772Z,1005.16
2019-02-08T05:43:35.744Z,1005.15
2019-02-08T05:44:35.864Z,1005.17
2019-02-08T05:45:35.744Z,1005.16
2019-02-08T05:46:35.666Z,1005.10
2019-02-08T05:47:56.639Z,1005.10
2019-02-08T05:48:35.613Z,1005.12
2019-02-08T05:49:35.585Z,1005.11
2019-02-08T05:50:35.559Z,1005.05
2019-02-08T05:51:35.535Z,1005.07
2019-02-08T05:52:35.506Z,1005.02
2019-02-08T05:53:56.478Z,1005.02
2019-02-08T05:54:35.457Z,1005.05
2019-02-08T05:55:35.430Z,1005.08
2019-02-08T05:56:35.400Z,1005.04
2019-02-08T05:57:35.376Z,1005.03
2019-02-08T05:58:35.349Z,1005.09
2019-02-08T05:59:56.321Z,1005.03
2019-02-08T06:00:35.297Z,1005.04
2019-02-08T06:01:35.271Z,1005.06
2019-02-08T06:02:35.245Z,1004.99
2019-02-08T06:03:35.219Z,1005.02
2019-02-08T06:04:35.202Z,1004.99
2019-02-08T06:05:56.168Z,1005.11
2019-02-08T06:06:35.139Z,1004.95
2019-02-08T06:07:35.110Z,1004.98
2019-02-08T06:08:35.091Z,1004.94
2019-02-08T06:09:35.057Z,1004.96
2019-02-08T06:10:35.035Z,1004.91
2019-02-08T06:11:56.005Z,1004.94
2019-02-08T06:12:34.978Z,1004.86
2019-02-08T06:13:34.954Z,1004.82
2019-02-08T06:14:34.925Z,1004.84
2019-02-08T06:15:34.902Z,1004.89
2019-02-08T06:16:34.874Z,1004.87
2019-02-08T06:17:55.847Z,1004.80
2019-02-08T06:18:34.824Z,1004.82
2019-02-08T06:19:34.794Z,1004.79
2019-02-08T06:20:34.766Z,1004.81
2019-02-08T06:21:34.742Z,1004.86
2019-02-08T06:22:34.721Z,1004.78
2019-02-08T06:23:55.692Z,1004.83
2019-02-08T06:24:34.667Z,1004.82
2019-02-08T06:25:34.635Z,1004.78
2019-02-08T06:26:34.608Z,1004.80
2019-02-08T06:27:34.593Z,1004.80
2019-02-08T06:28:34.556Z,1004.82
2019-02-08T06:29:55.530Z,1004.83
2019-02-08T06:30:34.504Z,1004.83
2019-02-08T06:31:34.498Z,1004.80
2019-02-08T06:32:34.448Z,1004.83
2019-02-08T06:33:34.425Z,1004.86
2019-02-08T06:34:34.401Z,1004.85
2019-02-08T06:35:55.371Z,1004.79
2019-02-08T06:36:34.355Z,1004.83
2019-02-08T06:37:34.317Z,1004.86
2019-02-08T06:38:34.290Z,1004.88
2019-02-08T06:39:34.264Z,1004.87
2019-02-08T06:40:34.239Z,1004.88
2019-02-08T06:41:55.212Z,1004.86
2019-02-08T06:42:34.186Z,1004.88
2019-02-08T06:43:34.160Z,1004.90
2019-02-08T06:44:34.137Z,1004.88
2019-02-08T06:45:34.110Z,1004.86
2019-02-08T06:46:34.080Z,1004.92
2019-02-08T06:47:55.056Z,1004.92
2019-02-08T06:48:34.030Z,1004.95
2019-02-08T06:49:34.003Z,1004.95
2019-02-08T06:50:33.979Z,1004.97
2019-02-08T06:51:33.952Z,1004.95
2019-02-08T06:52:33.922Z,1004.95
2019-02-08T06:53:54.893Z,1004.91
2019-02-08T06:54:33.869Z,1004.94
2019-02-08T06:55:33.843Z,1004.95
2019-02-08T06:56:33.815Z,1004.95
2019-02-08T06:57:33.789Z,1004.92
2019-02-08T06:58:33.763Z,1004.99
2019-02-08T06:59:54.736Z,1004.96
2019-02-08T07:00:33.714Z,1004.96
2019-02-08T07:01:33.684Z,1004.96
2019-02-08T07:02:33.657Z,1004.96
2019-02-08T07:03:33.630Z,1005.02
2019-02-08T07:04:33.604Z,1005.00
2019-02-08T07:05:54.577Z,1004.95
2019-02-08T07:06:33.587Z,1004.92
2019-02-08T07:07:33.524Z,1005.01
2019-02-08T07:08:33.498Z,1005.02
2019-02-08T07:09:33.764Z,1005.07
2019-02-08T07:10:33.446Z,1004.98
2019-02-08T07:11:54.419Z,1005.04
2019-02-08T07:12:33.390Z,1005.05
2019-02-08T07:13:33.377Z,1005.01
2019-02-08T07:14:33.342Z,1005.03
2019-02-08T07:15:33.313Z,1005.05
2019-02-08T07:16:33.285Z,1005.02
2019-02-08T07:17:54.258Z,1005.02
2019-02-08T07:18:33.235Z,1005.06
2019-02-08T07:19:33.207Z,1005.02
2019-02-08T07:20:33.183Z,1005.01
2019-02-08T07:21:33.153Z,1005.01
2019-02-08T07:22:33.130Z,1005.06
2019-02-08T07:23:54.099Z,1005.05
2019-02-08T07:24:33.073Z,1004.95
2019-02-08T07:25:33.047Z,1004.98
2019-02-08T07:26:33.020Z,1005.03
2019-02-08T07:27:33.008Z,1005.05
2019-02-08T07:28:32.968Z,1005.01
2019-02-08T07:29:53.941Z,1005.02
2019-02-08T07:30:32.918Z,1005.06
2019-02-08T07:31:32.891Z,1005.03
2019-02-08T07:32:32.863Z,1004.99
2019-02-08T07:33:32.839Z,1005.04
2019-02-08T07:34:32.817Z,1005.03
2019-02-08T07:35:53.783Z,1004.95
2019-02-08T07:36:32.759Z,1004.99
2019-02-08T07:37:32.732Z,1005.02
2019-02-08T07:38:32.703Z,1005.00
2019-02-08T07:39:32.682Z,1005.03
2019-02-08T07:40:32.650Z,1004.99
2019-02-08T07:41:53.623Z,1005.01
2019-02-08T07:42:32.598Z,1005.05
2019-02-08T07:43:32.571Z,1005.07
2019-02-08T07:44:32.545Z,1005.07
2019-02-08T07:45:32.556Z,1005.09
2019-02-08T07:46:32.494Z,1005.08
2019-02-08T07:47:53.485Z,1005.01
2019-02-08T07:48:32.444Z,1004.99
2019-02-08T07:49:32.414Z,1004.99
2019-02-08T07:50:32.387Z,1005.05
2019-02-08T07:51:32.361Z,1005.04
2019-02-08T07:52:32.332Z,1005.02
2019-02-08T07:53:53.315Z,1005.05
2019-02-08T07:54:32.281Z,1005.00
2019-02-08T07:55:32.254Z,1004.97
2019-02-08T07:56:32.228Z,1005.00
2019-02-08T07:57:32.201Z,1005.00
2019-02-08T07:58:32.177Z,1005.00
2019-02-08T07:59:53.147Z,1005.03
2019-02-08T08:00:32.121Z,1005.04
2019-02-08T08:01:32.094Z,1004.96
2019-02-08T08:02:32.068Z,1004.98
2019-02-08T08:03:32.046Z,1005.02
2019-02-08T08:04:32.014Z,1004.96
2019-02-08T08:05:52.988Z,1004.96
2019-02-08T08:06:31.962Z,1004.94
2019-02-08T08:07:31.934Z,1004.94
2019-02-08T08:08:31.910Z,1004.94
2019-02-08T08:09:31.881Z,1004.90
2019-02-08T08:10:31.856Z,1004.90
2019-02-08T08:11:52.831Z,1004.90
2019-02-08T08:12:31.807Z,1004.97
2019-02-08T08:13:31.777Z,1004.94
2019-02-08T08:14:31.750Z,1004.96
2019-02-08T08:15:31.723Z,1004.99
2019-02-08T08:16:31.702Z,1004.91
2019-02-08T08:17:52.669Z,1004.90
2019-02-08T08:18:31.644Z,1004.90
2019-02-08T08:19:31.617Z,1004.88
2019-02-08T08:20:31.593Z,1004.90
2019-02-08T08:21:31.565Z,1004.90
2019-02-08T08:22:31.540Z,1004.92
2019-02-08T08:23:52.512Z,1005.00
2019-02-08T08:24:31.485Z,1004.84
2019-02-08T08:25:34.169Z,1004.90
2019-02-08T08:26:31.433Z,1004.90
2019-02-08T08:27:31.408Z,1004.90
2019-02-08T08:28:31.379Z,1004.92
2019-02-08T08:29:52.355Z,1004.91
2019-02-08T08:30:31.327Z,1004.93
2019-02-08T08:31:31.302Z,1004.93
2019-02-08T08:32:31.273Z,1004.93
2019-02-08T08:33:31.247Z,1004.96
2019-02-08T08:34:31.221Z,1004.87
2019-02-08T08:35:52.193Z,1004.91
2019-02-08T08:36:31.172Z,1004.91
2019-02-08T08:37:31.142Z,1004.90
2019-02-08T08:38:31.117Z,1004.92
2019-02-08T08:39:31.091Z,1004.87
2019-02-08T08:40:31.066Z,1004.93
2019-02-08T08:41:52.040Z,1004.85
2019-02-08T08:42:31.014Z,1004.85
2019-02-08T08:43:30.986Z,1004.83
2019-02-08T08:44:30.960Z,1004.87
2019-02-08T08:45:30.939Z,1004.82
2019-02-08T08:46:30.911Z,1004.87
2019-02-08T08:47:51.883Z,1004.90
2019-02-08T08:48:30.855Z,1004.92
2019-02-08T08:49:30.828Z,1004.86
2019-02-08T08:50:30.802Z,1004.89
2019-02-08T08:51:30.778Z,1004.82
2019-02-08T08:52:30.750Z,1004.81
2019-02-08T08:53:51.724Z,1004.80
2019-02-08T08:54:30.703Z,1004.74
2019-02-08T08:55:30.674Z,1004.76
2019-02-08T08:56:30.647Z,1004.87
2019-02-08T08:57:30.621Z,1004.81
2019-02-08T08:58:30.596Z,1004.79
2019-02-08T08:59:51.570Z,1004.69
2019-02-08T09:00:30.542Z,1004.76
2019-02-08T09:01:30.518Z,1004.74
2019-02-08T09:02:30.492Z,1004.71
2019-02-08T09:03:30.467Z,1004.70
2019-02-08T09:04:30.440Z,1004.70
2019-02-08T09:05:51.412Z,1004.75
2019-02-08T09:06:30.388Z,1004.76
2019-02-08T09:07:30.363Z,1004.76
2019-02-08T09:08:30.335Z,1004.70
2019-02-08T09:09:30.309Z,1004.68
2019-02-08T09:10:30.284Z,1004.81
2019-02-08T09:11:51.257Z,1004.69
2019-02-08T09:12:30.232Z,1004.69
2019-02-08T09:13:30.205Z,1004.71
2019-02-08T09:14:30.186Z,1004.61
2019-02-08T09:15:30.154Z,1004.68
2019-02-08T09:16:30.128Z,1004.78
2019-02-08T09:17:51.104Z,1004.67
2019-02-08T09:18:30.076Z,1004.56
2019-02-08T09:19:30.052Z,1004.74
2019-02-08T09:20:30.024Z,1004.60
2019-02-08T09:21:30.004Z,1004.67
2019-02-08T09:22:29.972Z,1004.60
2019-02-08T09:23:50.946Z,1004.67
2019-02-08T09:24:29.922Z,1004.59
2019-02-08T09:25:29.900Z,1004.62
2019-02-08T09:26:29.870Z,1004.55
2019-02-08T09:27:29.844Z,1004.64
2019-02-08T09:28:29.815Z,1004.61
2019-02-08T09:29:50.820Z,1004.55
2019-02-08T09:30:29.766Z,1004.64
2019-02-08T09:31:29.741Z,1004.65
2019-02-08T09:32:29.713Z,1004.63
2019-02-08T09:33:29.686Z,1004.60
2019-02-08T09:34:29.663Z,1004.55
2019-02-08T09:35:50.636Z,1004.63
2019-02-08T09:36:29.610Z,1004.54
2019-02-08T09:37:29.583Z,1004.57
2019-02-08T09:38:29.558Z,1004.60
2019-02-08T09:39:29.534Z,1004.50
2019-02-08T09:40:29.509Z,1004.57
2019-02-08T09:41:50.478Z,1004.53
2019-02-08T09:42:29.455Z,1004.49
2019-02-08T09:43:29.429Z,1004.69
2019-02-08T09:44:29.405Z,1004.59
2019-02-08T09:45:29.385Z,1004.63
2019-02-08T09:46:29.352Z,1004.62
2019-02-08T09:47:50.326Z,1004.63
2019-02-08T09:48:29.300Z,1004.60
2019-02-08T09:49:29.275Z,1004.51
2019-02-08T09:50:29.247Z,1004.54
2019-02-08T09:51:29.225Z,1004.55
2019-02-08T09:52:29.198Z,1004.58
2019-02-08T09:53:50.186Z,1004.51
2019-02-08T09:54:29.144Z,1004.57
2019-02-08T09:55:29.122Z,1004.58
2019-02-08T09:56:29.093Z,1004.53
2019-02-08T09:57:29.067Z,1004.65
2019-02-08T09:58:29.044Z,1004.58
2019-02-08T09:59:50.017Z,1004.61
2019-02-08T10:00:28.992Z,1004.61
2019-02-08T10:01:28.968Z,1004.56
2019-02-08T10:02:28.938Z,1004.58
2019-02-08T10:03:28.913Z,1004.57
2019-02-08T10:04:28.907Z,1004.58
2019-02-08T10:05:49.860Z,1004.52
2019-02-08T10:06:28.836Z,1004.56
2019-02-08T10:07:28.811Z,1004.65
2019-02-08T10:08:28.785Z,1004.47
2019-02-08T10:09:28.763Z,1004.48
2019-02-08T10:10:28.733Z,1004.46
2019-02-08T10:11:49.713Z,1004.54
2019-02-08T10:12:28.682Z,1004.52
2019-02-08T10:13:28.679Z,1004.47
2019-02-08T10:14:28.631Z,1004.42
2019-02-08T10:15:28.605Z,1004.41
2019-02-08T10:16:28.578Z,1004.41
2019-02-08T10:17:49.560Z,1004.44
2019-02-08T10:18:28.531Z,1004.38
2019-02-08T10:19:28.507Z,1004.37
2019-02-08T10:20:28.480Z,1004.34
2019-02-08T10:21:28.455Z,1004.31
2019-02-08T10:22:28.430Z,1004.29
2019-02-08T10:23:49.401Z,1004.31
2019-02-08T10:24:28.375Z,1004.30
2019-02-08T10:25:28.350Z,1004.26
2019-02-08T10:26:28.325Z,1004.23
2019-02-08T10:27:28.306Z,1004.32
2019-02-08T10:28:28.273Z,1004.24
2019-02-08T10:29:49.248Z,1004.21
2019-02-08T10:30:28.222Z,1004.25
2019-02-08T10:31:28.196Z,1004.28
2019-02-08T10:32:28.171Z,1004.26
2019-02-08T10:33:28.146Z,1004.23
2019-02-08T10:34:28.122Z,1004.26
2019-02-08T10:35:49.105Z,1004.27
2019-02-08T10:36:28.076Z,1004.27
2019-02-08T10:37:28.045Z,1004.31
2019-02-08T10:38:28.018Z,1004.27
2019-02-08T10:39:27.995Z,1004.26
2019-02-08T10:40:27.967Z,1004.19
2019-02-08T10:41:48.941Z,1004.23
2019-02-08T10:42:27.921Z,1004.27
2019-02-08T10:43:27.894Z,1004.21
2019-02-08T10:44:27.864Z,1004.21
2019-02-08T10:45:27.840Z,1004.18
2019-02-08T10:46:27.818Z,1004.26
2019-02-08T10:47:48.790Z,1004.14
2019-02-08T10:48:27.763Z,1004.17
2019-02-08T10:49:27.740Z,1004.18
2019-02-08T10:50:27.720Z,1004.23
2019-02-08T10:51:27.690Z,1004.22
2019-02-08T10:52:27.671Z,1004.22
2019-02-08T10:53:53.171Z,1004.21
2019-02-08T10:54:27.617Z,1004.12
2019-02-08T10:55:27.593Z,1004.16
2019-02-08T10:56:27.561Z,1004.09
2019-02-08T10:57:27.540Z,1004.09
2019-02-08T10:58:27.527Z,1004.11
2019-02-08T10:59:48.488Z,1004.19
2019-02-08T11:00:27.466Z,1004.03
2019-02-08T11:01:27.437Z,1003.93
2019-02-08T11:02:27.414Z,1004.12
2019-02-08T11:03:27.409Z,1004.04
2019-02-08T11:04:27.365Z,1004.01
2019-02-08T11:05:48.353Z,1003.94
2019-02-08T11:06:27.312Z,1004.04
2019-02-08T11:07:28.182Z,1003.93
2019-02-08T11:08:27.267Z,1003.95
2019-02-08T11:09:27.237Z,1003.88
2019-02-08T11:10:27.211Z,1003.97
2019-02-08T11:11:48.185Z,1003.93
2019-02-08T11:12:27.161Z,1003.93
2019-02-08T11:13:27.138Z,1003.85
2019-02-08T11:14:27.112Z,1003.78
2019-02-08T11:15:27.086Z,1003.82
2019-02-08T11:16:27.062Z,1003.73
2019-02-08T11:17:48.033Z,1003.76
2019-02-08T11:18:27.013Z,1003.74
2019-02-08T11:19:26.989Z,1003.74
2019-02-08T11:20:26.961Z,1003.71
2019-02-08T11:21:26.934Z,1003.71
2019-02-08T11:22:26.912Z,1003.70
2019-02-08T11:23:47.884Z,1003.72
2019-02-08T11:24:26.862Z,1003.72
2019-02-08T11:25:26.842Z,1003.72
2019-02-08T11:26:26.810Z,1003.67
2019-02-08T11:27:26.788Z,1003.67
2019-02-08T11:28:26.758Z,1003.64
2019-02-08T11:29:47.734Z,1003.67
2019-02-08T11:30:26.711Z,1003.73
2019-02-08T11:31:26.696Z,1003.60
2019-02-08T11:32:42.305Z,1003.52
2019-02-08T11:33:26.684Z,1003.64
2019-02-08T11:34:26.609Z,1003.49
2019-02-08T11:35:47.589Z,1003.54
2019-02-08T11:36:26.560Z,1003.44
2019-02-08T11:37:26.550Z,1003.48
2019-02-08T11:38:26.511Z,1003.38
2019-02-08T11:39:26.486Z,1003.38
2019-02-08T11:40:26.463Z,1003.44
2019-02-08T11:41:47.436Z,1003.43
2019-02-08T11:42:26.410Z,1003.48
2019-02-08T11:43:26.408Z,1003.47
2019-02-08T11:44:26.371Z,1003.51
2019-02-08T11:45:26.336Z,1003.53
2019-02-08T11:46:26.317Z,1003.45
2019-02-08T11:47:47.284Z,1003.53
2019-02-08T11:48:26.262Z,1003.48
2019-02-08T11:49:26.236Z,1003.47
2019-02-08T11:50:26.213Z,1003.48
2019-02-08T11:51:26.188Z,1003.51
2019-02-08T11:52:26.160Z,1003.42
2019-02-08T11:53:47.135Z,1003.41
2019-02-08T11:54:26.113Z,1003.54
2019-02-08T11:55:26.088Z,1003.36
2019-02-08T11:56:30.053Z,1003.33
2019-02-08T11:57:26.036Z,1003.31
2019-02-08T11:58:26.012Z,1003.31
2019-02-08T11:59:46.985Z,1003.30
2019-02-08T12:00:25.960Z,1003.25
2019-02-08T12:01:26.003Z,1003.28
2019-02-08T12:02:25.921Z,1003.31
2019-02-08T12:03:25.891Z,1003.19
2019-02-08T12:04:25.875Z,1003.22